Webber, KS

2:01 PM CDT on September 16, 2014 (GMT -0500)
2 S of Pawnee | Change Station
CLOSE
Current Station
Personal Weather Station
Location: Courtland, KS
Elevation: 1565 ft
Nearby Weather Stations

Elev 1565 ft 39.89 °N, 97.85 °W | Updated 1 second ago

Mostly Cloudy
Mostly Cloudy
68.7 °F
Feels Like 68.7 °F
N
8.9
Wind Variable Wind from SE
Gusts 9.8 mph

Today
High -- | Low -- °F
--% Chance of Precip.
Yesterday
High -- | Low -- °F
Precip. -- in
7:13 AM 7:38 PM
Last Quarter, 43% visible
Pressure 30.12 in
Visibility 10.0 miles
Clouds Mostly Cloudy 4400 ft
Dew Point 52 °F
Humidity 55%
Rainfall 0.00 in
Snow Depth Not available.
UV 4 out of 12
Pollen 6.30 out of 12
Air Quality Not available.
Flu Activity Not available.
METAR KHJH 161855Z AUTO 16008KT 10SM BKN044 21/07 A3012 RMK AO2 T02120071

More Conditions Fewer Conditions

Pressure 30.12 in
Visibility 10.0 miles
Clouds Mostly Cloudy 4400 ft
Dew Point 52 °F
Humidity 55%
Rainfall 0.00 in
Snow Depth Not available.
UV 4 out of 12
Pollen 6.30 out of 12
Air Quality Not available.
Flu Activity Not available.
METAR KHJH 161855Z AUTO 16008KT 10SM BKN044 21/07 A3012 RMK AO2 T02120071

More Conditions Fewer Conditions

10-Day Weather Forecast

Almanac

Astronomy

Sep. 16, 2014 Rise Set
Actual Time 7:13 AM CDT 7:38 PM CDT
Civil Twilight 6:46 AM CDT 8:05 PM CDT
Nautical Twilight 6:14 AM CDT 8:37 PM CDT
Astronomical Twilight 5:42 AM CDT 9:10 PM CDT
Moon 12:25 AM CDT 3:03 PM CDT
Length of Visible Light 13h 19m
Length of Day
12h 24m
Tomorrow will be 2m 36s shorter.
Last Quarter, 43% of the Moon is Illuminated
Today
Last Quarter
Sep 24
New
Oct 1
First Quarter
Oct 8
Full
Oct 15
Last Quarter

Today's Extremes

State Highs State Lows

Community

WunderPhotos

Upload Photos

1,753,860 photos uploaded!

WunderBlogs® & News

Nearby

Snow Depth

Station Depth Elevation
No new snow has been reported.

Earthquake Activity

City Distance Mag. Time & Date
No recent earthquake activity has been reported nearby.
Minimum magnitude displayed is 2.5.

Coastal Water Temperatures

Place Temperature
No Stations Reporting

Nearby Weather Stations